sensor_id;sensor_type;location;lat;lon;timestamp;P1;durP1;ratioP1;P2;durP2;ratioP2
15012;SDS011;7603;49.432;11.418;2023-05-17T00:00:49;2.60;;;1.20;;
15012;SDS011;7603;49.432;11.418;2023-05-17T00:03:15;1.35;;;1.25;;
15012;SDS011;7603;49.432;11.418;2023-05-17T00:05:41;1.30;;;1.30;;
15012;SDS011;7603;49.432;11.418;2023-05-17T00:08:06;1.10;;;1.10;;
15012;SDS011;7603;49.432;11.418;2023-05-17T00:10:32;4.55;;;1.40;;
15012;SDS011;7603;49.432;11.418;2023-05-17T00:12:57;1.73;;;1.65;;
15012;SDS011;7603;49.432;11.418;2023-05-17T00:15:23;1.17;;;1.17;;
15012;SDS011;7603;49.432;11.418;2023-05-17T00:17:49;2.78;;;1.60;;
15012;SDS011;7603;49.432;11.418;2023-05-17T00:20:14;1.48;;;1.38;;
15012;SDS011;7603;49.432;11.418;2023-05-17T00:22:40;1.75;;;1.60;;
15012;SDS011;7603;49.432;11.418;2023-05-17T00:25:07;2.55;;;1.50;;
15012;SDS011;7603;49.432;11.418;2023-05-17T00:27:33;3.25;;;1.42;;
15012;SDS011;7603;49.432;11.418;2023-05-17T00:29:58;1.30;;;1.30;;
15012;SDS011;7603;49.432;11.418;2023-05-17T00:32:24;1.55;;;1.45;;
15012;SDS011;7603;49.432;11.418;2023-05-17T00:34:49;1.42;;;1.33;;
15012;SDS011;7603;49.432;11.418;2023-05-17T00:37:15;1.70;;;1.38;;
15012;SDS011;7603;49.432;11.418;2023-05-17T00:39:40;2.40;;;2.13;;
15012;SDS011;7603;49.432;11.418;2023-05-17T00:42:06;1.40;;;1.30;;
15012;SDS011;7603;49.432;11.418;2023-05-17T00:44:32;1.40;;;1.30;;
15012;SDS011;7603;49.432;11.418;2023-05-17T00:46:57;1.83;;;1.50;;
15012;SDS011;7603;49.432;11.418;2023-05-17T00:49:24;1.30;;;1.30;;
15012;SDS011;7603;49.432;11.418;2023-05-17T00:51:50;1.05;;;1.05;;
15012;SDS011;7603;49.432;11.418;2023-05-17T00:54:17;1.95;;;1.27;;
15012;SDS011;7603;49.432;11.418;2023-05-17T00:56:43;1.45;;;1.35;;
15012;SDS011;7603;49.432;11.418;2023-05-17T00:59:08;1.50;;;1.40;;
15012;SDS011;7603;49.432;11.418;2023-05-17T01:01:36;1.10;;;1.10;;
15012;SDS011;7603;49.432;11.418;2023-05-17T01:04:06;1.63;;;1.45;;
15012;SDS011;7603;49.432;11.418;2023-05-17T01:06:32;1.88;;;1.63;;
15012;SDS011;7603;49.432;11.418;2023-05-17T01:08:59;2.92;;;1.65;;
15012;SDS011;7603;49.432;11.418;2023-05-17T01:14:08;2.33;;;2.20;;
15012;SDS011;7603;49.432;11.418;2023-05-17T01:16:52;1.75;;;1.02;;
15012;SDS011;7603;49.432;11.418;2023-05-17T01:19:31;1.30;;;1.20;;
15012;SDS011;7603;49.432;11.418;2023-05-17T01:25:10;1.00;;;1.00;;
15012;SDS011;7603;49.432;11.418;2023-05-17T01:27:42;2.13;;;1.65;;
15012;SDS011;7603;49.432;11.418;2023-05-17T01:30:12;2.40;;;1.25;;
15012;SDS011;7603;49.432;11.418;2023-05-17T01:32:41;1.42;;;1.33;;
15012;SDS011;7603;49.432;11.418;2023-05-17T01:35:09;2.70;;;1.48;;
15012;SDS011;7603;49.432;11.418;2023-05-17T01:37:38;1.08;;;1.08;;
15012;SDS011;7603;49.432;11.418;2023-05-17T01:40:04;1.20;;;1.10;;
15012;SDS011;7603;49.432;11.418;2023-05-17T01:42:33;1.23;;;1.20;;
15012;SDS011;7603;49.432;11.418;2023-05-17T01:45:06;1.38;;;1.30;;
15012;SDS011;7603;49.432;11.418;2023-05-17T01:47:44;2.20;;;1.58;;
15012;SDS011;7603;49.432;11.418;2023-05-17T01:50:33;2.80;;;1.35;;
15012;SDS011;7603;49.432;11.418;2023-05-17T01:53:10;1.05;;;1.05;;
15012;SDS011;7603;49.432;11.418;2023-05-17T01:55:49;0.90;;;0.90;;
15012;SDS011;7603;49.432;11.418;2023-05-17T01:58:19;1.50;;;1.30;;
15012;SDS011;7603;49.432;11.418;2023-05-17T02:00:47;1.52;;;1.42;;
15012;SDS011;7603;49.432;11.418;2023-05-17T02:03:19;1.20;;;1.10;;
15012;SDS011;7603;49.432;11.418;2023-05-17T02:05:45;2.67;;;1.00;;
15012;SDS011;7603;49.432;11.418;2023-05-17T02:08:11;0.90;;;0.90;;
15012;SDS011;7603;49.432;11.418;2023-05-17T02:10:37;1.05;;;1.05;;
15012;SDS011;7603;49.432;11.418;2023-05-17T02:13:03;0.90;;;0.90;;
15012;SDS011;7603;49.432;11.418;2023-05-17T02:15:29;0.95;;;0.95;;
15012;SDS011;7603;49.432;11.418;2023-05-17T02:17:55;1.30;;;1.25;;
15012;SDS011;7603;49.432;11.418;2023-05-17T02:20:21;5.45;;;1.40;;
15012;SDS011;7603;49.432;11.418;2023-05-17T02:22:47;0.82;;;0.82;;
15012;SDS011;7603;49.432;11.418;2023-05-17T02:25:12;1.58;;;1.13;;
15012;SDS011;7603;49.432;11.418;2023-05-17T02:27:38;1.38;;;1.27;;
15012;SDS011;7603;49.432;11.418;2023-05-17T02:30:04;5.00;;;1.33;;
15012;SDS011;7603;49.432;11.418;2023-05-17T02:32:30;2.25;;;1.15;;
15012;SDS011;7603;49.432;11.418;2023-05-17T02:34:57;1.25;;;1.20;;
15012;SDS011;7603;49.432;11.418;2023-05-17T02:37:22;1.13;;;1.13;;
15012;SDS011;7603;49.432;11.418;2023-05-17T02:39:48;1.67;;;1.50;;
15012;SDS011;7603;49.432;11.418;2023-05-17T02:42:14;2.03;;;1.83;;
15012;SDS011;7603;49.432;11.418;2023-05-17T02:44:40;1.45;;;1.40;;
15012;SDS011;7603;49.432;11.418;2023-05-17T02:47:06;1.80;;;1.40;;
15012;SDS011;7603;49.432;11.418;2023-05-17T02:49:31;3.70;;;1.15;;
15012;SDS011;7603;49.432;11.418;2023-05-17T02:51:57;1.30;;;1.30;;
15012;SDS011;7603;49.432;11.418;2023-05-17T02:54:22;3.33;;;1.37;;
15012;SDS011;7603;49.432;11.418;2023-05-17T02:56:48;6.60;;;1.40;;
15012;SDS011;7603;49.432;11.418;2023-05-17T02:59:14;1.05;;;1.05;;
15012;SDS011;7603;49.432;11.418;2023-05-17T03:01:39;1.33;;;1.10;;
15012;SDS011;7603;49.432;11.418;2023-05-17T03:04:06;1.17;;;1.08;;
15012;SDS011;7603;49.432;11.418;2023-05-17T03:06:31;1.33;;;1.23;;
15012;SDS011;7603;49.432;11.418;2023-05-17T03:08:58;1.10;;;1.10;;
15012;SDS011;7603;49.432;11.418;2023-05-17T03:11:24;1.38;;;1.27;;
15012;SDS011;7603;49.432;11.418;2023-05-17T03:13:50;1.20;;;1.20;;
15012;SDS011;7603;49.432;11.418;2023-05-17T03:16:16;5.80;;;1.10;;
15012;SDS011;7603;49.432;11.418;2023-05-17T03:18:43;3.33;;;1.20;;
15012;SDS011;7603;49.432;11.418;2023-05-17T03:21:09;0.90;;;0.90;;
15012;SDS011;7603;49.432;11.418;2023-05-17T03:23:34;0.97;;;0.97;;
15012;SDS011;7603;49.432;11.418;2023-05-17T03:26:00;1.40;;;1.30;;
15012;SDS011;7603;49.432;11.418;2023-05-17T03:28:26;4.03;;;1.67;;
15012;SDS011;7603;49.432;11.418;2023-05-17T03:30:51;1.67;;;1.57;;
15012;SDS011;7603;49.432;11.418;2023-05-17T03:33:18;4.80;;;1.60;;
15012;SDS011;7603;49.432;11.418;2023-05-17T03:35:44;4.23;;;1.37;;
15012;SDS011;7603;49.432;11.418;2023-05-17T03:38:12;1.27;;;1.20;;
15012;SDS011;7603;49.432;11.418;2023-05-17T03:40:39;1.00;;;1.00;;
15012;SDS011;7603;49.432;11.418;2023-05-17T03:43:05;1.60;;;1.43;;
15012;SDS011;7603;49.432;11.418;2023-05-17T03:45:31;13.47;;;1.40;;
15012;SDS011;7603;49.432;11.418;2023-05-17T03:47:56;1.10;;;1.10;;
15012;SDS011;7603;49.432;11.418;2023-05-17T03:50:22;1.35;;;1.25;;
15012;SDS011;7603;49.432;11.418;2023-05-17T03:52:47;4.22;;;1.45;;
15012;SDS011;7603;49.432;11.418;2023-05-17T03:55:13;1.97;;;1.37;;
15012;SDS011;7603;49.432;11.418;2023-05-17T03:57:39;2.30;;;1.83;;
15012;SDS011;7603;49.432;11.418;2023-05-17T04:00:04;1.43;;;1.20;;
15012;SDS011;7603;49.432;11.418;2023-05-17T04:02:34;1.90;;;1.23;;
15012;SDS011;7603;49.432;11.418;2023-05-17T04:05:00;1.65;;;1.55;;
15012;SDS011;7603;49.432;11.418;2023-05-17T04:07:25;2.05;;;1.52;;
15012;SDS011;7603;49.432;11.418;2023-05-17T04:09:51;3.15;;;1.60;;
15012;SDS011;7603;49.432;11.418;2023-05-17T04:12:17;1.65;;;1.60;;
15012;SDS011;7603;49.432;11.418;2023-05-17T04:14:42;3.50;;;2.97;;
15012;SDS011;7603;49.432;11.418;2023-05-17T04:17:08;2.73;;;2.47;;
15012;SDS011;7603;49.432;11.418;2023-05-17T04:19:34;5.43;;;2.42;;
15012;SDS011;7603;49.432;11.418;2023-05-17T04:21:59;1.98;;;1.88;;
15012;SDS011;7603;49.432;11.418;2023-05-17T04:24:25;1.30;;;1.27;;
15012;SDS011;7603;49.432;11.418;2023-05-17T04:26:50;1.30;;;1.20;;
15012;SDS011;7603;49.432;11.418;2023-05-17T04:29:16;1.23;;;1.23;;
15012;SDS011;7603;49.432;11.418;2023-05-17T04:31:41;1.23;;;1.23;;
15012;SDS011;7603;49.432;11.418;2023-05-17T04:34:07;0.98;;;0.98;;
15012;SDS011;7603;49.432;11.418;2023-05-17T04:36:33;1.23;;;1.20;;
15012;SDS011;7603;49.432;11.418;2023-05-17T04:38:59;1.00;;;1.00;;
15012;SDS011;7603;49.432;11.418;2023-05-17T04:41:24;5.07;;;1.90;;
15012;SDS011;7603;49.432;11.418;2023-05-17T04:43:50;1.42;;;1.33;;
15012;SDS011;7603;49.432;11.418;2023-05-17T04:46:15;2.47;;;1.30;;
15012;SDS011;7603;49.432;11.418;2023-05-17T04:48:41;4.25;;;1.00;;
15012;SDS011;7603;49.432;11.418;2023-05-17T04:51:06;1.05;;;1.05;;
15012;SDS011;7603;49.432;11.418;2023-05-17T04:53:32;0.98;;;0.98;;
15012;SDS011;7603;49.432;11.418;2023-05-17T04:55:58;1.30;;;1.30;;
15012;SDS011;7603;49.432;11.418;2023-05-17T04:58:23;3.78;;;1.20;;
15012;SDS011;7603;49.432;11.418;2023-05-17T05:00:49;1.00;;;1.00;;
15012;SDS011;7603;49.432;11.418;2023-05-17T05:03:16;4.20;;;1.00;;
15012;SDS011;7603;49.432;11.418;2023-05-17T05:05:42;4.13;;;1.40;;
15012;SDS011;7603;49.432;11.418;2023-05-17T05:08:07;0.80;;;0.80;;
15012;SDS011;7603;49.432;11.418;2023-05-17T05:10:33;1.02;;;1.02;;
15012;SDS011;7603;49.432;11.418;2023-05-17T05:12:59;6.35;;;0.82;;
15012;SDS011;7603;49.432;11.418;2023-05-17T05:15:25;1.02;;;1.02;;
15012;SDS011;7603;49.432;11.418;2023-05-17T05:17:51;2.53;;;0.90;;
15012;SDS011;7603;49.432;11.418;2023-05-17T05:20:16;0.80;;;0.80;;
15012;SDS011;7603;49.432;11.418;2023-05-17T05:22:42;1.23;;;1.13;;
15012;SDS011;7603;49.432;11.418;2023-05-17T05:25:08;0.73;;;0.73;;
15012;SDS011;7603;49.432;11.418;2023-05-17T05:27:34;0.90;;;0.90;;
15012;SDS011;7603;49.432;11.418;2023-05-17T05:30:00;1.70;;;0.73;;
15012;SDS011;7603;49.432;11.418;2023-05-17T05:32:26;0.80;;;0.80;;
15012;SDS011;7603;49.432;11.418;2023-05-17T05:34:52;0.77;;;0.77;;
15012;SDS011;7603;49.432;11.418;2023-05-17T05:37:17;0.80;;;0.80;;
15012;SDS011;7603;49.432;11.418;2023-05-17T05:39:43;1.00;;;1.00;;
15012;SDS011;7603;49.432;11.418;2023-05-17T05:42:09;0.98;;;0.70;;
15012;SDS011;7603;49.432;11.418;2023-05-17T05:44:35;0.88;;;0.75;;
15012;SDS011;7603;49.432;11.418;2023-05-17T05:47:01;1.00;;;1.00;;
15012;SDS011;7603;49.432;11.418;2023-05-17T05:49:27;6.65;;;1.48;;
15012;SDS011;7603;49.432;11.418;2023-05-17T05:51:52;5.05;;;2.30;;
15012;SDS011;7603;49.432;11.418;2023-05-17T05:54:18;2.90;;;1.73;;
15012;SDS011;7603;49.432;11.418;2023-05-17T05:56:43;4.15;;;1.70;;
15012;SDS011;7603;49.432;11.418;2023-05-17T05:59:09;2.85;;;1.30;;
15012;SDS011;7603;49.432;11.418;2023-05-17T06:01:35;3.10;;;1.20;;
15012;SDS011;7603;49.432;11.418;2023-05-17T06:04:01;2.38;;;1.00;;
15012;SDS011;7603;49.432;11.418;2023-05-17T06:06:27;2.15;;;0.98;;
15012;SDS011;7603;49.432;11.418;2023-05-17T06:08:52;3.13;;;0.98;;
15012;SDS011;7603;49.432;11.418;2023-05-17T06:11:18;6.00;;;1.77;;
15012;SDS011;7603;49.432;11.418;2023-05-17T06:13:45;1.45;;;1.10;;
15012;SDS011;7603;49.432;11.418;2023-05-17T06:16:10;4.32;;;1.40;;
15012;SDS011;7603;49.432;11.418;2023-05-17T06:18:36;0.82;;;0.80;;
15012;SDS011;7603;49.432;11.418;2023-05-17T06:21:02;1.45;;;1.35;;
15012;SDS011;7603;49.432;11.418;2023-05-17T06:23:27;2.03;;;0.90;;
15012;SDS011;7603;49.432;11.418;2023-05-17T06:25:53;3.00;;;0.77;;
15012;SDS011;7603;49.432;11.418;2023-05-17T06:28:19;1.27;;;1.15;;
15012;SDS011;7603;49.432;11.418;2023-05-17T06:30:45;0.80;;;0.80;;
15012;SDS011;7603;49.432;11.418;2023-05-17T06:33:10;0.80;;;0.80;;
15012;SDS011;7603;49.432;11.418;2023-05-17T06:35:37;3.80;;;1.60;;
15012;SDS011;7603;49.432;11.418;2023-05-17T06:38:02;3.33;;;1.73;;
15012;SDS011;7603;49.432;11.418;2023-05-17T06:40:28;3.45;;;1.50;;
15012;SDS011;7603;49.432;11.418;2023-05-17T06:42:54;1.55;;;1.45;;
15012;SDS011;7603;49.432;11.418;2023-05-17T06:45:20;2.92;;;1.77;;
15012;SDS011;7603;49.432;11.418;2023-05-17T06:47:45;3.45;;;1.83;;
15012;SDS011;7603;49.432;11.418;2023-05-17T06:50:11;3.40;;;1.80;;
15012;SDS011;7603;49.432;11.418;2023-05-17T06:52:37;4.53;;;1.50;;
15012;SDS011;7603;49.432;11.418;2023-05-17T06:55:03;5.05;;;1.85;;
15012;SDS011;7603;49.432;11.418;2023-05-17T06:57:29;1.48;;;1.38;;
15012;SDS011;7603;49.432;11.418;2023-05-17T06:59:55;2.60;;;1.60;;
15012;SDS011;7603;49.432;11.418;2023-05-17T07:02:21;2.00;;;1.70;;
15012;SDS011;7603;49.432;11.418;2023-05-17T07:04:47;3.95;;;1.70;;
15012;SDS011;7603;49.432;11.418;2023-05-17T07:07:12;4.50;;;1.75;;
15012;SDS011;7603;49.432;11.418;2023-05-17T07:09:38;3.75;;;1.90;;
15012;SDS011;7603;49.432;11.418;2023-05-17T07:12:04;2.22;;;1.52;;
15012;SDS011;7603;49.432;11.418;2023-05-17T07:14:30;3.58;;;1.45;;
15012;SDS011;7603;49.432;11.418;2023-05-17T07:16:56;2.42;;;1.73;;
15012;SDS011;7603;49.432;11.418;2023-05-17T07:19:21;3.63;;;1.90;;
15012;SDS011;7603;49.432;11.418;2023-05-17T07:21:47;1.77;;;1.60;;
15012;SDS011;7603;49.432;11.418;2023-05-17T07:24:12;4.15;;;1.60;;
15012;SDS011;7603;49.432;11.418;2023-05-17T07:26:38;2.28;;;1.63;;
15012;SDS011;7603;49.432;11.418;2023-05-17T07:29:04;3.40;;;1.80;;
15012;SDS011;7603;49.432;11.418;2023-05-17T07:31:30;2.63;;;1.30;;
15012;SDS011;7603;49.432;11.418;2023-05-17T07:33:55;4.18;;;1.88;;
15012;SDS011;7603;49.432;11.418;2023-05-17T07:36:21;3.30;;;1.75;;
15012;SDS011;7603;49.432;11.418;2023-05-17T07:38:46;3.10;;;1.90;;
15012;SDS011;7603;49.432;11.418;2023-05-17T07:41:12;6.70;;;1.83;;
15012;SDS011;7603;49.432;11.418;2023-05-17T07:43:40;1.98;;;1.75;;
15012;SDS011;7603;49.432;11.418;2023-05-17T07:46:06;3.42;;;1.70;;
15012;SDS011;7603;49.432;11.418;2023-05-17T07:48:32;2.13;;;1.92;;
15012;SDS011;7603;49.432;11.418;2023-05-17T07:50:58;4.70;;;2.13;;
15012;SDS011;7603;49.432;11.418;2023-05-17T07:53:23;5.35;;;2.05;;
15012;SDS011;7603;49.432;11.418;2023-05-17T07:55:49;3.55;;;2.00;;
15012;SDS011;7603;49.432;11.418;2023-05-17T07:58:14;4.30;;;2.03;;
15012;SDS011;7603;49.432;11.418;2023-05-17T08:00:40;2.55;;;1.70;;
15012;SDS011;7603;49.432;11.418;2023-05-17T08:03:06;1.83;;;1.63;;
15012;SDS011;7603;49.432;11.418;2023-05-17T08:05:32;3.38;;;1.60;;
15012;SDS011;7603;49.432;11.418;2023-05-17T08:07:58;3.53;;;1.98;;
15012;SDS011;7603;49.432;11.418;2023-05-17T08:10:24;2.72;;;1.88;;
15012;SDS011;7603;49.432;11.418;2023-05-17T08:12:51;3.13;;;1.20;;
15012;SDS011;7603;49.432;11.418;2023-05-17T08:15:17;1.95;;;1.13;;
15012;SDS011;7603;49.432;11.418;2023-05-17T08:17:42;2.55;;;1.45;;
15012;SDS011;7603;49.432;11.418;2023-05-17T08:20:08;1.85;;;1.60;;
15012;SDS011;7603;49.432;11.418;2023-05-17T08:22:34;3.15;;;1.23;;
15012;SDS011;7603;49.432;11.418;2023-05-17T08:25:00;4.72;;;2.00;;
15012;SDS011;7603;49.432;11.418;2023-05-17T08:27:26;3.10;;;1.42;;
15012;SDS011;7603;49.432;11.418;2023-05-17T08:29:54;1.70;;;1.40;;
15012;SDS011;7603;49.432;11.418;2023-05-17T08:32:21;7.07;;;2.42;;
15012;SDS011;7603;49.432;11.418;2023-05-17T08:34:47;0.45;;;0.45;;
15012;SDS011;7603;49.432;11.418;2023-05-17T08:37:13;1.02;;;0.93;;
15012;SDS011;7603;49.432;11.418;2023-05-17T08:39:39;2.65;;;2.13;;
15012;SDS011;7603;49.432;11.418;2023-05-17T08:42:07;2.40;;;2.17;;
15012;SDS011;7603;49.432;11.418;2023-05-17T08:44:33;3.65;;;1.98;;
15012;SDS011;7603;49.432;11.418;2023-05-17T08:47:00;5.13;;;2.25;;
15012;SDS011;7603;49.432;11.418;2023-05-17T08:49:27;3.70;;;2.90;;
15012;SDS011;7603;49.432;11.418;2023-05-17T08:51:58;3.70;;;2.13;;
15012;SDS011;7603;49.432;11.418;2023-05-17T08:54:25;2.42;;;1.98;;
15012;SDS011;7603;49.432;11.418;2023-05-17T08:56:53;4.87;;;2.43;;
15012;SDS011;7603;49.432;11.418;2023-05-17T08:59:22;1.88;;;1.77;;
15012;SDS011;7603;49.432;11.418;2023-05-17T09:01:50;5.72;;;2.55;;
15012;SDS011;7603;49.432;11.418;2023-05-17T09:04:18;8.55;;;2.00;;
15012;SDS011;7603;49.432;11.418;2023-05-17T09:06:44;6.18;;;2.00;;
15012;SDS011;7603;49.432;11.418;2023-05-17T09:09:10;1.25;;;1.15;;
15012;SDS011;7603;49.432;11.418;2023-05-17T09:11:35;8.88;;;2.22;;
15012;SDS011;7603;49.432;11.418;2023-05-17T09:14:02;4.95;;;1.67;;
15012;SDS011;7603;49.432;11.418;2023-05-17T09:16:29;7.00;;;2.55;;
15012;SDS011;7603;49.432;11.418;2023-05-17T09:18:57;10.18;;;2.42;;
15012;SDS011;7603;49.432;11.418;2023-05-17T09:21:23;7.85;;;2.38;;
15012;SDS011;7603;49.432;11.418;2023-05-17T09:23:50;1.40;;;1.30;;
15012;SDS011;7603;49.432;11.418;2023-05-17T09:26:16;3.58;;;1.60;;
15012;SDS011;7603;49.432;11.418;2023-05-17T09:28:42;2.05;;;1.85;;
15012;SDS011;7603;49.432;11.418;2023-05-17T09:31:08;2.45;;;1.45;;
15012;SDS011;7603;49.432;11.418;2023-05-17T09:36:18;3.45;;;1.58;;
15012;SDS011;7603;49.432;11.418;2023-05-17T09:38:52;4.43;;;1.50;;
15012;SDS011;7603;49.432;11.418;2023-05-17T09:41:28;1.73;;;1.63;;
15012;SDS011;7603;49.432;11.418;2023-05-17T09:44:02;1.33;;;1.23;;
15012;SDS011;7603;49.432;11.418;2023-05-17T09:46:37;2.90;;;1.33;;
15012;SDS011;7603;49.432;11.418;2023-05-17T09:49:06;2.03;;;1.55;;
15012;SDS011;7603;49.432;11.418;2023-05-17T09:51:33;2.65;;;2.42;;
15012;SDS011;7603;49.432;11.418;2023-05-17T09:54:00;4.50;;;2.58;;
15012;SDS011;7603;49.432;11.418;2023-05-17T09:56:27;4.65;;;2.00;;
15012;SDS011;7603;49.432;11.418;2023-05-17T09:58:56;2.17;;;1.98;;
15012;SDS011;7603;49.432;11.418;2023-05-17T10:01:24;3.92;;;2.33;;
15012;SDS011;7603;49.432;11.418;2023-05-17T10:03:52;2.88;;;2.25;;
15012;SDS011;7603;49.432;11.418;2023-05-17T10:06:19;2.97;;;2.50;;
15012;SDS011;7603;49.432;11.418;2023-05-17T10:08:49;3.97;;;2.40;;
15012;SDS011;7603;49.432;11.418;2023-05-17T10:11:18;2.92;;;2.72;;
15012;SDS011;7603;49.432;11.418;2023-05-17T10:13:48;4.63;;;2.60;;
15012;SDS011;7603;49.432;11.418;2023-05-17T10:16:19;4.47;;;2.42;;
15012;SDS011;7603;49.432;11.418;2023-05-17T10:18:48;2.78;;;2.33;;
15012;SDS011;7603;49.432;11.418;2023-05-17T10:21:14;4.25;;;2.22;;
15012;SDS011;7603;49.432;11.418;2023-05-17T10:23:41;2.55;;;2.35;;
15012;SDS011;7603;49.432;11.418;2023-05-17T10:26:08;2.10;;;1.90;;
15012;SDS011;7603;49.432;11.418;2023-05-17T10:28:34;3.75;;;2.00;;
15012;SDS011;7603;49.432;11.418;2023-05-17T10:31:02;5.20;;;1.45;;
15012;SDS011;7603;49.432;11.418;2023-05-17T10:33:30;2.67;;;1.87;;
15012;SDS011;7603;49.432;11.418;2023-05-17T10:35:57;4.65;;;2.15;;
15012;SDS011;7603;49.432;11.418;2023-05-17T10:38:23;4.63;;;1.83;;
15012;SDS011;7603;49.432;11.418;2023-05-17T10:40:50;3.10;;;2.80;;
15012;SDS011;7603;49.432;11.418;2023-05-17T10:43:17;7.57;;;2.38;;
15012;SDS011;7603;49.432;11.418;2023-05-17T10:45:44;3.22;;;2.38;;
15012;SDS011;7603;49.432;11.418;2023-05-17T10:48:12;3.65;;;1.60;;
15012;SDS011;7603;49.432;11.418;2023-05-17T10:50:39;4.38;;;2.20;;
15012;SDS011;7603;49.432;11.418;2023-05-17T10:53:09;3.55;;;1.70;;
15012;SDS011;7603;49.432;11.418;2023-05-17T10:55:39;3.25;;;1.98;;
15012;SDS011;7603;49.432;11.418;2023-05-17T10:58:17;2.38;;;1.88;;
15012;SDS011;7603;49.432;11.418;2023-05-17T11:00:48;2.08;;;1.85;;
15012;SDS011;7603;49.432;11.418;2023-05-17T11:08:34;1.98;;;1.88;;
15012;SDS011;7603;49.432;11.418;2023-05-17T11:11:13;2.42;;;2.22;;
15012;SDS011;7603;49.432;11.418;2023-05-17T11:13:42;5.90;;;2.45;;
15012;SDS011;7603;49.432;11.418;2023-05-17T11:16:21;2.42;;;1.75;;
15012;SDS011;7603;49.432;11.418;2023-05-17T11:18:52;5.38;;;1.60;;
15012;SDS011;7603;49.432;11.418;2023-05-17T11:21:19;2.30;;;1.80;;
15012;SDS011;7603;49.432;11.418;2023-05-17T11:23:46;2.53;;;2.10;;
15012;SDS011;7603;49.432;11.418;2023-05-17T11:29:00;5.68;;;2.00;;
15012;SDS011;7603;49.432;11.418;2023-05-17T11:31:31;4.93;;;2.20;;
15012;SDS011;7603;49.432;11.418;2023-05-17T11:33:57;4.35;;;3.25;;
15012;SDS011;7603;49.432;11.418;2023-05-17T11:36:26;2.30;;;2.00;;
15012;SDS011;7603;49.432;11.418;2023-05-17T11:39:24;3.38;;;1.70;;
15012;SDS011;7603;49.432;11.418;2023-05-17T11:41:46;2.30;;;2.10;;
15012;SDS011;7603;49.432;11.418;2023-05-17T11:44:21;3.97;;;2.05;;
15012;SDS011;7603;49.432;11.418;2023-05-17T11:47:07;3.72;;;2.03;;
15012;SDS011;7603;49.432;11.418;2023-05-17T11:49:35;2.25;;;2.05;;
15012;SDS011;7603;49.432;11.418;2023-05-17T11:52:02;4.05;;;1.65;;
15012;SDS011;7603;49.432;11.418;2023-05-17T11:54:29;2.45;;;2.00;;
15012;SDS011;7603;49.432;11.418;2023-05-17T11:56:55;5.78;;;1.92;;
15012;SDS011;7603;49.432;11.418;2023-05-17T11:59:23;3.90;;;1.88;;
15012;SDS011;7603;49.432;11.418;2023-05-17T12:01:49;2.28;;;2.08;;
15012;SDS011;7603;49.432;11.418;2023-05-17T12:04:21;5.50;;;2.40;;
15012;SDS011;7603;49.432;11.418;2023-05-17T12:06:49;1.85;;;1.63;;
15012;SDS011;7603;49.432;11.418;2023-05-17T12:09:15;2.33;;;2.10;;
15012;SDS011;7603;49.432;11.418;2023-05-17T12:11:41;7.85;;;2.00;;
15012;SDS011;7603;49.432;11.418;2023-05-17T12:14:08;6.35;;;2.10;;
15012;SDS011;7603;49.432;11.418;2023-05-17T12:16:34;2.45;;;1.98;;
15012;SDS011;7603;49.432;11.418;2023-05-17T12:19:00;1.88;;;1.67;;
15012;SDS011;7603;49.432;11.418;2023-05-17T12:21:26;2.35;;;1.95;;
15012;SDS011;7603;49.432;11.418;2023-05-17T12:23:52;2.08;;;1.90;;
15012;SDS011;7603;49.432;11.418;2023-05-17T12:26:21;7.20;;;2.30;;
15012;SDS011;7603;49.432;11.418;2023-05-17T12:28:57;3.10;;;1.63;;
15012;SDS011;7603;49.432;11.418;2023-05-17T12:31:27;2.38;;;2.17;;
15012;SDS011;7603;49.432;11.418;2023-05-17T12:34:04;3.08;;;2.22;;
15012;SDS011;7603;49.432;11.418;2023-05-17T12:36:30;3.75;;;1.95;;
15012;SDS011;7603;49.432;11.418;2023-05-17T12:38:57;7.10;;;2.30;;
15012;SDS011;7603;49.432;11.418;2023-05-17T12:41:23;1.83;;;1.50;;
15012;SDS011;7603;49.432;11.418;2023-05-17T12:43:52;3.00;;;2.00;;
15012;SDS011;7603;49.432;11.418;2023-05-17T12:46:20;1.73;;;1.63;;
15012;SDS011;7603;49.432;11.418;2023-05-17T12:48:47;2.15;;;1.60;;
15012;SDS011;7603;49.432;11.418;2023-05-17T12:51:18;4.53;;;2.03;;
15012;SDS011;7603;49.432;11.418;2023-05-17T12:53:48;2.00;;;1.67;;
15012;SDS011;7603;49.432;11.418;2023-05-17T12:56:18;6.28;;;2.65;;
15012;SDS011;7603;49.432;11.418;2023-05-17T13:01:44;2.08;;;1.98;;
15012;SDS011;7603;49.432;11.418;2023-05-17T13:04:12;3.10;;;1.50;;
15012;SDS011;7603;49.432;11.418;2023-05-17T13:06:49;2.30;;;1.65;;
15012;SDS011;7603;49.432;11.418;2023-05-17T13:09:19;2.03;;;1.92;;
15012;SDS011;7603;49.432;11.418;2023-05-17T13:11:54;1.67;;;1.58;;
15012;SDS011;7603;49.432;11.418;2023-05-17T13:14:34;1.95;;;1.83;;
15012;SDS011;7603;49.432;11.418;2023-05-17T13:17:10;1.52;;;1.42;;
15012;SDS011;7603;49.432;11.418;2023-05-17T13:19:40;2.53;;;1.88;;
15012;SDS011;7603;49.432;11.418;2023-05-17T13:22:06;2.85;;;1.85;;
15012;SDS011;7603;49.432;11.418;2023-05-17T13:24:35;5.13;;;2.00;;
15012;SDS011;7603;49.432;11.418;2023-05-17T13:27:02;2.30;;;2.10;;
15012;SDS011;7603;49.432;11.418;2023-05-17T13:29:28;3.30;;;1.83;;
15012;SDS011;7603;49.432;11.418;2023-05-17T13:31:54;2.55;;;2.08;;
15012;SDS011;7603;49.432;11.418;2023-05-17T13:34:20;3.13;;;2.67;;
15012;SDS011;7603;49.432;11.418;2023-05-17T13:36:46;2.75;;;2.28;;
15012;SDS011;7603;49.432;11.418;2023-05-17T13:39:12;4.28;;;2.22;;
15012;SDS011;7603;49.432;11.418;2023-05-17T13:41:38;3.90;;;2.15;;
15012;SDS011;7603;49.432;11.418;2023-05-17T13:44:04;11.75;;;3.85;;
15012;SDS011;7603;49.432;11.418;2023-05-17T13:46:30;3.47;;;2.47;;
15012;SDS011;7603;49.432;11.418;2023-05-17T13:48:56;2.55;;;1.75;;
15012;SDS011;7603;49.432;11.418;2023-05-17T13:51:22;3.67;;;1.90;;
15012;SDS011;7603;49.432;11.418;2023-05-17T13:53:49;3.72;;;2.63;;
15012;SDS011;7603;49.432;11.418;2023-05-17T13:56:15;5.75;;;2.28;;
15012;SDS011;7603;49.432;11.418;2023-05-17T13:58:41;4.22;;;2.17;;
15012;SDS011;7603;49.432;11.418;2023-05-17T14:01:07;2.35;;;2.15;;
15012;SDS011;7603;49.432;11.418;2023-05-17T14:03:33;2.90;;;2.03;;
15012;SDS011;7603;49.432;11.418;2023-05-17T14:06:00;5.93;;;1.83;;
15012;SDS011;7603;49.432;11.418;2023-05-17T14:08:27;2.22;;;2.05;;
15012;SDS011;7603;49.432;11.418;2023-05-17T14:10:53;3.55;;;1.80;;
15012;SDS011;7603;49.432;11.418;2023-05-17T14:13:22;2.20;;;2.00;;
15012;SDS011;7603;49.432;11.418;2023-05-17T14:15:47;3.42;;;2.72;;
15012;SDS011;7603;49.432;11.418;2023-05-17T14:18:13;4.22;;;2.60;;
15012;SDS011;7603;49.432;11.418;2023-05-17T14:20:39;3.13;;;2.92;;
15012;SDS011;7603;49.432;11.418;2023-05-17T14:23:04;4.32;;;1.88;;
15012;SDS011;7603;49.432;11.418;2023-05-17T14:25:30;4.40;;;2.55;;
15012;SDS011;7603;49.432;11.418;2023-05-17T14:27:56;2.42;;;2.22;;
15012;SDS011;7603;49.432;11.418;2023-05-17T14:30:22;3.00;;;2.27;;
15012;SDS011;7603;49.432;11.418;2023-05-17T14:32:51;1.63;;;1.52;;
15012;SDS011;7603;49.432;11.418;2023-05-17T14:35:17;2.03;;;1.90;;
15012;SDS011;7603;49.432;11.418;2023-05-17T14:37:42;3.85;;;2.53;;
15012;SDS011;7603;49.432;11.418;2023-05-17T14:40:08;3.08;;;2.03;;
15012;SDS011;7603;49.432;11.418;2023-05-17T14:42:34;4.85;;;1.70;;
15012;SDS011;7603;49.432;11.418;2023-05-17T14:45:00;2.42;;;1.85;;
15012;SDS011;7603;49.432;11.418;2023-05-17T14:47:25;2.38;;;2.13;;
15012;SDS011;7603;49.432;11.418;2023-05-17T14:49:51;6.60;;;1.83;;
15012;SDS011;7603;49.432;11.418;2023-05-17T14:52:17;1.65;;;1.55;;
15012;SDS011;7603;49.432;11.418;2023-05-17T14:54:43;2.33;;;1.80;;
15012;SDS011;7603;49.432;11.418;2023-05-17T14:57:09;1.65;;;1.55;;
15012;SDS011;7603;49.432;11.418;2023-05-17T14:59:35;3.25;;;2.38;;
15012;SDS011;7603;49.432;11.418;2023-05-17T15:02:02;3.67;;;2.50;;
15012;SDS011;7603;49.432;11.418;2023-05-17T15:04:28;2.80;;;2.40;;
15012;SDS011;7603;49.432;11.418;2023-05-17T15:06:54;2.63;;;2.20;;